sensor_id;sensor_type;location;lat;lon;timestamp;temperature;humidity
83146;DHT22;73037;51.110;4.706;2024-03-02T00:02:27;7.80;0.00
83146;DHT22;73037;51.110;4.706;2024-03-02T00:04:52;7.90;0.00
83146;DHT22;73037;51.110;4.706;2024-03-02T00:07:18;7.90;0.00
83146;DHT22;73037;51.110;4.706;2024-03-02T00:09:44;7.80;0.00
83146;DHT22;73037;51.110;4.706;2024-03-02T00:12:12;7.90;0.00
83146;DHT22;73037;51.110;4.706;2024-03-02T00:14:41;7.90;0.00
83146;DHT22;73037;51.110;4.706;2024-03-02T00:17:24;7.80;0.00
83146;DHT22;73037;51.110;4.706;2024-03-02T00:19:50;7.80;0.00
83146;DHT22;73037;51.110;4.706;2024-03-02T00:22:16;7.80;0.00
83146;DHT22;73037;51.110;4.706;2024-03-02T00:24:42;7.80;0.00
83146;DHT22;73037;51.110;4.706;2024-03-02T00:27:08;7.70;0.00
83146;DHT22;73037;51.110;4.706;2024-03-02T00:29:38;7.70;0.00
83146;DHT22;73037;51.110;4.706;2024-03-02T00:32:11;7.70;0.00
83146;DHT22;73037;51.110;4.706;2024-03-02T00:34:37;7.70;0.00
83146;DHT22;73037;51.110;4.706;2024-03-02T00:37:03;7.80;0.00
83146;DHT22;73037;51.110;4.706;2024-03-02T00:39:29;7.80;0.00
83146;DHT22;73037;51.110;4.706;2024-03-02T00:41:55;7.70;0.00
83146;DHT22;73037;51.110;4.706;2024-03-02T00:44:25;7.70;0.00
83146;DHT22;73037;51.110;4.706;2024-03-02T00:46:51;7.70;0.00
83146;DHT22;73037;51.110;4.706;2024-03-02T00:49:22;7.70;0.00
83146;DHT22;73037;51.110;4.706;2024-03-02T00:51:51;7.50;0.00
83146;DHT22;73037;51.110;4.706;2024-03-02T00:54:21;7.50;0.00
83146;DHT22;73037;51.110;4.706;2024-03-02T00:56:49;7.50;0.00
83146;DHT22;73037;51.110;4.706;2024-03-02T00:59:16;7.50;0.00
83146;DHT22;73037;51.110;4.706;2024-03-02T01:01:41;7.50;0.00
83146;DHT22;73037;51.110;4.706;2024-03-02T01:04:08;7.30;0.00
83146;DHT22;73037;51.110;4.706;2024-03-02T01:06:35;7.20;0.00
83146;DHT22;73037;51.110;4.706;2024-03-02T01:09:01;7.40;0.00
83146;DHT22;73037;51.110;4.706;2024-03-02T01:11:26;7.40;0.00
83146;DHT22;73037;51.110;4.706;2024-03-02T01:13:53;7.40;0.00
83146;DHT22;73037;51.110;4.706;2024-03-02T01:16:18;7.40;0.00
83146;DHT22;73037;51.110;4.706;2024-03-02T01:18:44;7.40;0.00
83146;DHT22;73037;51.110;4.706;2024-03-02T01:21:10;7.30;0.00
83146;DHT22;73037;51.110;4.706;2024-03-02T01:23:35;7.20;0.00
83146;DHT22;73037;51.110;4.706;2024-03-02T01:26:01;7.20;0.00
83146;DHT22;73037;51.110;4.706;2024-03-02T01:28:26;7.20;0.00
83146;DHT22;73037;51.110;4.706;2024-03-02T01:30:53;7.20;0.00
83146;DHT22;73037;51.110;4.706;2024-03-02T01:33:19;7.20;0.00
83146;DHT22;73037;51.110;4.706;2024-03-02T01:35:45;7.20;0.00
83146;DHT22;73037;51.110;4.706;2024-03-02T01:38:11;7.20;0.00
83146;DHT22;73037;51.110;4.706;2024-03-02T01:40:37;7.20;0.00
83146;DHT22;73037;51.110;4.706;2024-03-02T01:43:07;7.20;0.00
83146;DHT22;73037;51.110;4.706;2024-03-02T01:45:33;7.20;0.00
83146;DHT22;73037;51.110;4.706;2024-03-02T01:47:59;7.20;0.00
83146;DHT22;73037;51.110;4.706;2024-03-02T01:50:29;7.20;0.00
83146;DHT22;73037;51.110;4.706;2024-03-02T01:52:56;7.40;0.00
83146;DHT22;73037;51.110;4.706;2024-03-02T01:55:22;7.40;0.00
83146;DHT22;73037;51.110;4.706;2024-03-02T01:57:49;7.40;0.00
83146;DHT22;73037;51.110;4.706;2024-03-02T02:00:16;7.20;0.00
83146;DHT22;73037;51.110;4.706;2024-03-02T02:02:42;7.30;0.00
83146;DHT22;73037;51.110;4.706;2024-03-02T02:05:08;7.20;0.00
83146;DHT22;73037;51.110;4.706;2024-03-02T02:07:35;7.10;0.00
83146;DHT22;73037;51.110;4.706;2024-03-02T02:10:01;7.00;0.00
83146;DHT22;73037;51.110;4.706;2024-03-02T02:12:27;6.90;0.00
83146;DHT22;73037;51.110;4.706;2024-03-02T02:14:52;6.80;0.00
83146;DHT22;73037;51.110;4.706;2024-03-02T02:17:18;6.70;0.00
83146;DHT22;73037;51.110;4.706;2024-03-02T02:19:44;6.60;0.00
83146;DHT22;73037;51.110;4.706;2024-03-02T02:22:10;6.60;0.00
83146;DHT22;73037;51.110;4.706;2024-03-02T02:24:39;6.60;0.00
83146;DHT22;73037;51.110;4.706;2024-03-02T02:27:05;6.60;0.00
83146;DHT22;73037;51.110;4.706;2024-03-02T02:29:30;6.60;0.00
83146;DHT22;73037;51.110;4.706;2024-03-02T02:31:56;6.70;0.00
83146;DHT22;73037;51.110;4.706;2024-03-02T02:34:22;6.80;0.00
83146;DHT22;73037;51.110;4.706;2024-03-02T02:36:47;6.80;0.00
83146;DHT22;73037;51.110;4.706;2024-03-02T02:39:16;6.90;0.00
83146;DHT22;73037;51.110;4.706;2024-03-02T02:41:42;6.90;0.00
83146;DHT22;73037;51.110;4.706;2024-03-02T02:44:09;6.90;0.00
83146;DHT22;73037;51.110;4.706;2024-03-02T02:46:40;7.00;0.00
83146;DHT22;73037;51.110;4.706;2024-03-02T02:49:06;7.10;0.00
83146;DHT22;73037;51.110;4.706;2024-03-02T02:51:32;7.10;0.00
83146;DHT22;73037;51.110;4.706;2024-03-02T02:53:58;7.20;0.00
83146;DHT22;73037;51.110;4.706;2024-03-02T02:56:23;7.20;0.00
83146;DHT22;73037;51.110;4.706;2024-03-02T02:58:49;7.20;0.00
83146;DHT22;73037;51.110;4.706;2024-03-02T03:01:15;7.20;0.00
83146;DHT22;73037;51.110;4.706;2024-03-02T03:03:44;7.20;0.00
83146;DHT22;73037;51.110;4.706;2024-03-02T03:06:10;7.20;0.00
83146;DHT22;73037;51.110;4.706;2024-03-02T03:08:35;7.20;0.00
83146;DHT22;73037;51.110;4.706;2024-03-02T03:11:01;7.20;0.00
83146;DHT22;73037;51.110;4.706;2024-03-02T03:13:27;7.20;0.00
83146;DHT22;73037;51.110;4.706;2024-03-02T03:15:53;7.20;0.00
83146;DHT22;73037;51.110;4.706;2024-03-02T03:18:18;7.10;0.00
83146;DHT22;73037;51.110;4.706;2024-03-02T03:20:44;7.20;0.00
83146;DHT22;73037;51.110;4.706;2024-03-02T03:23:09;7.00;0.00
83146;DHT22;73037;51.110;4.706;2024-03-02T03:25:40;7.00;0.00
83146;DHT22;73037;51.110;4.706;2024-03-02T03:28:07;6.80;0.00
83146;DHT22;73037;51.110;4.706;2024-03-02T03:30:36;6.70;0.00
83146;DHT22;73037;51.110;4.706;2024-03-02T03:33:01;6.70;0.00
83146;DHT22;73037;51.110;4.706;2024-03-02T03:35:27;6.70;0.00
83146;DHT22;73037;51.110;4.706;2024-03-02T03:37:52;6.70;0.00
83146;DHT22;73037;51.110;4.706;2024-03-02T03:40:18;6.60;0.00
83146;DHT22;73037;51.110;4.706;2024-03-02T03:42:44;6.50;0.00
83146;DHT22;73037;51.110;4.706;2024-03-02T03:45:10;6.40;0.00
83146;DHT22;73037;51.110;4.706;2024-03-02T03:47:36;6.30;0.00
83146;DHT22;73037;51.110;4.706;2024-03-02T03:50:01;6.30;0.00
83146;DHT22;73037;51.110;4.706;2024-03-02T03:52:30;6.20;0.00
83146;DHT22;73037;51.110;4.706;2024-03-02T03:54:55;6.20;0.00
83146;DHT22;73037;51.110;4.706;2024-03-02T03:57:21;6.10;0.00
83146;DHT22;73037;51.110;4.706;2024-03-02T03:59:46;6.00;0.00
83146;DHT22;73037;51.110;4.706;2024-03-02T04:02:12;6.00;0.00
83146;DHT22;73037;51.110;4.706;2024-03-02T04:04:38;6.00;0.00
83146;DHT22;73037;51.110;4.706;2024-03-02T04:07:04;6.10;0.00
83146;DHT22;73037;51.110;4.706;2024-03-02T04:09:29;6.10;0.00
83146;DHT22;73037;51.110;4.706;2024-03-02T04:11:55;6.00;0.00
83146;DHT22;73037;51.110;4.706;2024-03-02T04:14:21;6.00;0.00
83146;DHT22;73037;51.110;4.706;2024-03-02T04:16:46;6.00;0.00
83146;DHT22;73037;51.110;4.706;2024-03-02T04:19:12;6.00;0.00
83146;DHT22;73037;51.110;4.706;2024-03-02T04:21:37;5.90;0.00
83146;DHT22;73037;51.110;4.706;2024-03-02T04:24:03;5.90;0.00
83146;DHT22;73037;51.110;4.706;2024-03-02T04:26:29;5.90;0.00
83146;DHT22;73037;51.110;4.706;2024-03-02T04:28:55;5.80;0.00
83146;DHT22;73037;51.110;4.706;2024-03-02T04:31:20;5.80;0.00
83146;DHT22;73037;51.110;4.706;2024-03-02T04:33:46;5.70;0.00
83146;DHT22;73037;51.110;4.706;2024-03-02T04:36:12;5.80;0.00
83146;DHT22;73037;51.110;4.706;2024-03-02T04:38:38;5.80;0.00
83146;DHT22;73037;51.110;4.706;2024-03-02T04:41:05;5.70;0.00
83146;DHT22;73037;51.110;4.706;2024-03-02T04:43:34;5.70;0.00
83146;DHT22;73037;51.110;4.706;2024-03-02T04:46:00;5.70;0.00
83146;DHT22;73037;51.110;4.706;2024-03-02T04:48:26;5.70;0.00
83146;DHT22;73037;51.110;4.706;2024-03-02T04:50:52;5.70;0.00
83146;DHT22;73037;51.110;4.706;2024-03-02T04:53:18;5.60;0.00
83146;DHT22;73037;51.110;4.706;2024-03-02T04:55:43;5.60;0.00
83146;DHT22;73037;51.110;4.706;2024-03-02T04:58:09;5.60;0.00
83146;DHT22;73037;51.110;4.706;2024-03-02T05:00:35;5.60;0.00
83146;DHT22;73037;51.110;4.706;2024-03-02T05:03:01;5.60;0.00
83146;DHT22;73037;51.110;4.706;2024-03-02T05:05:27;5.60;0.00
83146;DHT22;73037;51.110;4.706;2024-03-02T05:07:53;5.60;0.00
83146;DHT22;73037;51.110;4.706;2024-03-02T05:10:18;5.50;0.00
83146;DHT22;73037;51.110;4.706;2024-03-02T05:12:44;5.50;0.00
83146;DHT22;73037;51.110;4.706;2024-03-02T05:15:11;5.60;0.00
83146;DHT22;73037;51.110;4.706;2024-03-02T05:17:37;5.60;0.00
83146;DHT22;73037;51.110;4.706;2024-03-02T05:20:07;5.60;0.00
83146;DHT22;73037;51.110;4.706;2024-03-02T05:22:36;5.50;0.00
83146;DHT22;73037;51.110;4.706;2024-03-02T05:25:02;5.50;0.00
83146;DHT22;73037;51.110;4.706;2024-03-02T05:27:28;5.50;0.00
83146;DHT22;73037;51.110;4.706;2024-03-02T05:29:54;5.50;0.00
83146;DHT22;73037;51.110;4.706;2024-03-02T05:32:20;5.50;0.00
83146;DHT22;73037;51.110;4.706;2024-03-02T05:34:45;5.50;0.00
83146;DHT22;73037;51.110;4.706;2024-03-02T05:37:11;5.50;0.00
83146;DHT22;73037;51.110;4.706;2024-03-02T05:39:37;5.50;0.00
83146;DHT22;73037;51.110;4.706;2024-03-02T05:42:03;5.50;0.00
83146;DHT22;73037;51.110;4.706;2024-03-02T05:44:29;5.50;0.00
83146;DHT22;73037;51.110;4.706;2024-03-02T05:46:55;5.50;0.00
83146;DHT22;73037;51.110;4.706;2024-03-02T05:49:21;5.50;0.00
83146;DHT22;73037;51.110;4.706;2024-03-02T05:51:46;5.50;0.00
83146;DHT22;73037;51.110;4.706;2024-03-02T05:54:12;5.50;0.00
83146;DHT22;73037;51.110;4.706;2024-03-02T05:56:38;5.50;0.00
83146;DHT22;73037;51.110;4.706;2024-03-02T05:59:03;5.50;0.00
83146;DHT22;73037;51.110;4.706;2024-03-02T06:01:42;5.40;0.00
83146;DHT22;73037;51.110;4.706;2024-03-02T06:04:09;5.30;0.00
83146;DHT22;73037;51.110;4.706;2024-03-02T06:06:36;5.30;0.00
83146;DHT22;73037;51.110;4.706;2024-03-02T06:09:03;5.30;0.00
83146;DHT22;73037;51.110;4.706;2024-03-02T06:11:36;5.20;0.00
83146;DHT22;73037;51.110;4.706;2024-03-02T06:14:06;5.20;0.00
83146;DHT22;73037;51.110;4.706;2024-03-02T06:16:33;5.20;0.00
83146;DHT22;73037;51.110;4.706;2024-03-02T06:18:59;5.30;0.00
83146;DHT22;73037;51.110;4.706;2024-03-02T06:21:25;5.30;0.00
83146;DHT22;73037;51.110;4.706;2024-03-02T06:23:51;5.30;0.00
83146;DHT22;73037;51.110;4.706;2024-03-02T06:26:17;5.30;0.00
83146;DHT22;73037;51.110;4.706;2024-03-02T06:28:44;5.30;0.00
83146;DHT22;73037;51.110;4.706;2024-03-02T06:31:09;5.30;0.00
83146;DHT22;73037;51.110;4.706;2024-03-02T06:33:35;5.40;0.00
83146;DHT22;73037;51.110;4.706;2024-03-02T06:36:02;5.30;0.00
83146;DHT22;73037;51.110;4.706;2024-03-02T06:38:28;5.30;0.00
83146;DHT22;73037;51.110;4.706;2024-03-02T06:40:53;5.30;0.00
83146;DHT22;73037;51.110;4.706;2024-03-02T06:43:20;5.40;0.00
83146;DHT22;73037;51.110;4.706;2024-03-02T06:45:52;5.40;0.00
83146;DHT22;73037;51.110;4.706;2024-03-02T06:48:18;5.30;0.00
83146;DHT22;73037;51.110;4.706;2024-03-02T06:50:49;5.50;0.00
83146;DHT22;73037;51.110;4.706;2024-03-02T06:53:16;5.50;0.00
83146;DHT22;73037;51.110;4.706;2024-03-02T06:55:45;5.50;0.00
83146;DHT22;73037;51.110;4.706;2024-03-02T06:58:12;5.50;0.00
83146;DHT22;73037;51.110;4.706;2024-03-02T07:00:38;5.50;0.00
83146;DHT22;73037;51.110;4.706;2024-03-02T07:03:04;5.50;0.00
83146;DHT22;73037;51.110;4.706;2024-03-02T07:05:29;5.50;0.00
83146;DHT22;73037;51.110;4.706;2024-03-02T07:07:55;5.50;0.00
83146;DHT22;73037;51.110;4.706;2024-03-02T07:10:21;5.50;0.00
83146;DHT22;73037;51.110;4.706;2024-03-02T07:12:46;5.50;0.00
83146;DHT22;73037;51.110;4.706;2024-03-02T07:15:12;5.40;0.00
83146;DHT22;73037;51.110;4.706;2024-03-02T07:17:55;5.30;0.00
83146;DHT22;73037;51.110;4.706;2024-03-02T07:20:20;5.50;0.00
83146;DHT22;73037;51.110;4.706;2024-03-02T07:22:46;5.50;0.00
83146;DHT22;73037;51.110;4.706;2024-03-02T07:25:12;5.50;0.00
83146;DHT22;73037;51.110;4.706;2024-03-02T07:27:38;5.50;0.00
83146;DHT22;73037;51.110;4.706;2024-03-02T07:30:05;5.60;0.00
83146;DHT22;73037;51.110;4.706;2024-03-02T07:32:30;5.60;0.00
83146;DHT22;73037;51.110;4.706;2024-03-02T07:34:56;5.60;0.00
83146;DHT22;73037;51.110;4.706;2024-03-02T07:37:23;5.70;0.00
83146;DHT22;73037;51.110;4.706;2024-03-02T07:39:50;5.70;0.00
83146;DHT22;73037;51.110;4.706;2024-03-02T07:42:16;5.80;0.00
83146;DHT22;73037;51.110;4.706;2024-03-02T07:44:41;5.80;0.00
83146;DHT22;73037;51.110;4.706;2024-03-02T07:47:07;5.90;0.00
83146;DHT22;73037;51.110;4.706;2024-03-02T07:49:33;5.90;0.00
83146;DHT22;73037;51.110;4.706;2024-03-02T07:52:00;5.90;0.00
83146;DHT22;73037;51.110;4.706;2024-03-02T07:54:25;6.00;0.00
83146;DHT22;73037;51.110;4.706;2024-03-02T07:56:51;6.10;0.00
83146;DHT22;73037;51.110;4.706;2024-03-02T07:59:16;6.20;0.00
83146;DHT22;73037;51.110;4.706;2024-03-02T08:01:42;6.30;0.00
83146;DHT22;73037;51.110;4.706;2024-03-02T08:04:08;6.30;0.00
83146;DHT22;73037;51.110;4.706;2024-03-02T08:06:34;6.40;0.00
83146;DHT22;73037;51.110;4.706;2024-03-02T08:09:00;6.50;0.00
83146;DHT22;73037;51.110;4.706;2024-03-02T08:11:27;6.70;0.00
83146;DHT22;73037;51.110;4.706;2024-03-02T08:13:53;6.70;0.00
83146;DHT22;73037;51.110;4.706;2024-03-02T08:16:22;6.70;0.00
83146;DHT22;73037;51.110;4.706;2024-03-02T08:18:49;6.70;0.00
83146;DHT22;73037;51.110;4.706;2024-03-02T08:21:15;6.80;0.00
83146;DHT22;73037;51.110;4.706;2024-03-02T08:23:42;6.80;0.00
83146;DHT22;73037;51.110;4.706;2024-03-02T08:26:08;7.00;0.00
83146;DHT22;73037;51.110;4.706;2024-03-02T08:28:34;7.10;0.00
83146;DHT22;73037;51.110;4.706;2024-03-02T08:31:00;7.20;0.00
83146;DHT22;73037;51.110;4.706;2024-03-02T08:33:26;7.20;0.00
83146;DHT22;73037;51.110;4.706;2024-03-02T08:35:51;7.30;0.00
83146;DHT22;73037;51.110;4.706;2024-03-02T08:38:17;7.40;0.00
83146;DHT22;73037;51.110;4.706;2024-03-02T08:40:44;7.50;0.00
83146;DHT22;73037;51.110;4.706;2024-03-02T08:43:10;7.50;0.00
83146;DHT22;73037;51.110;4.706;2024-03-02T08:45:35;7.60;0.00
83146;DHT22;73037;51.110;4.706;2024-03-02T08:48:01;7.50;0.00
83146;DHT22;73037;51.110;4.706;2024-03-02T08:50:27;7.50;0.00
83146;DHT22;73037;51.110;4.706;2024-03-02T08:52:52;7.60;0.00
83146;DHT22;73037;51.110;4.706;2024-03-02T08:55:21;7.60;0.00
83146;DHT22;73037;51.110;4.706;2024-03-02T08:57:46;7.70;0.00
83146;DHT22;73037;51.110;4.706;2024-03-02T09:00:12;7.80;0.00
83146;DHT22;73037;51.110;4.706;2024-03-02T09:02:38;7.80;0.00
83146;DHT22;73037;51.110;4.706;2024-03-02T09:05:04;7.80;0.00
83146;DHT22;73037;51.110;4.706;2024-03-02T09:07:30;8.00;0.00
83146;DHT22;73037;51.110;4.706;2024-03-02T09:09:56;8.00;0.00
83146;DHT22;73037;51.110;4.706;2024-03-02T09:12:22;8.00;0.00
83146;DHT22;73037;51.110;4.706;2024-03-02T09:14:47;8.10;0.00
83146;DHT22;73037;51.110;4.706;2024-03-02T09:17:13;8.20;0.00
83146;DHT22;73037;51.110;4.706;2024-03-02T09:19:39;8.20;0.00
83146;DHT22;73037;51.110;4.706;2024-03-02T09:22:05;8.20;0.00
83146;DHT22;73037;51.110;4.706;2024-03-02T09:24:31;8.20;0.00
83146;DHT22;73037;51.110;4.706;2024-03-02T09:26:59;8.30;0.00
83146;DHT22;73037;51.110;4.706;2024-03-02T09:29:24;8.30;0.00
83146;DHT22;73037;51.110;4.706;2024-03-02T09:31:50;8.50;0.00
83146;DHT22;73037;51.110;4.706;2024-03-02T09:34:16;8.30;0.00
83146;DHT22;73037;51.110;4.706;2024-03-02T09:36:42;8.40;0.00
83146;DHT22;73037;51.110;4.706;2024-03-02T09:39:08;8.60;0.00
83146;DHT22;73037;51.110;4.706;2024-03-02T09:41:38;8.60;0.00
83146;DHT22;73037;51.110;4.706;2024-03-02T09:44:06;8.60;0.00
83146;DHT22;73037;51.110;4.706;2024-03-02T09:46:32;8.60;0.00
83146;DHT22;73037;51.110;4.706;2024-03-02T09:48:58;8.90;0.00
83146;DHT22;73037;51.110;4.706;2024-03-02T09:51:24;9.00;0.00
83146;DHT22;73037;51.110;4.706;2024-03-02T09:53:50;9.00;0.00
83146;DHT22;73037;51.110;4.706;2024-03-02T09:56:16;9.20;0.00
83146;DHT22;73037;51.110;4.706;2024-03-02T09:58:44;9.20;0.00
83146;DHT22;73037;51.110;4.706;2024-03-02T10:01:09;9.30;0.00
83146;DHT22;73037;51.110;4.706;2024-03-02T10:03:38;9.40;0.00
83146;DHT22;73037;51.110;4.706;2024-03-02T10:06:26;9.40;0.00
83146;DHT22;73037;51.110;4.706;2024-03-02T10:08:54;9.50;0.00
83146;DHT22;73037;51.110;4.706;2024-03-02T10:11:31;9.60;0.00
83146;DHT22;73037;51.110;4.706;2024-03-02T10:14:08;9.60;0.00
83146;DHT22;73037;51.110;4.706;2024-03-02T10:16:42;9.80;0.00
83146;DHT22;73037;51.110;4.706;2024-03-02T10:19:22;9.80;0.00
83146;DHT22;73037;51.110;4.706;2024-03-02T10:21:53;9.80;0.00
83146;DHT22;73037;51.110;4.706;2024-03-02T10:24:20;10.00;0.00
83146;DHT22;73037;51.110;4.706;2024-03-02T10:26:46;9.80;0.00
83146;DHT22;73037;51.110;4.706;2024-03-02T10:29:12;10.00;0.00
83146;DHT22;73037;51.110;4.706;2024-03-02T10:31:43;10.10;0.00
83146;DHT22;73037;51.110;4.706;2024-03-02T10:34:10;10.00;0.00
83146;DHT22;73037;51.110;4.706;2024-03-02T10:36:37;10.40;0.00
83146;DHT22;73037;51.110;4.706;2024-03-02T10:39:07;10.50;0.00
83146;DHT22;73037;51.110;4.706;2024-03-02T10:41:35;11.10;0.00
83146;DHT22;73037;51.110;4.706;2024-03-02T10:44:08;11.50;0.00
83146;DHT22;73037;51.110;4.706;2024-03-02T10:46:35;11.50;0.00
83146;DHT22;73037;51.110;4.706;2024-03-02T10:49:02;11.10;0.00
83146;DHT22;73037;51.110;4.706;2024-03-02T10:51:30;10.90;0.00
83146;DHT22;73037;51.110;4.706;2024-03-02T10:53:59;11.10;0.00
83146;DHT22;73037;51.110;4.706;2024-03-02T10:56:34;11.70;0.00
83146;DHT22;73037;51.110;4.706;2024-03-02T11:01:43;11.30;0.00
83146;DHT22;73037;51.110;4.706;2024-03-02T11:04:11;11.10;0.00
83146;DHT22;73037;51.110;4.706;2024-03-02T11:06:38;11.00;0.00
83146;DHT22;73037;51.110;4.706;2024-03-02T11:09:07;11.10;0.00
83146;DHT22;73037;51.110;4.706;2024-03-02T11:11:43;11.20;0.00
83146;DHT22;73037;51.110;4.706;2024-03-02T11:14:16;11.50;0.00
83146;DHT22;73037;51.110;4.706;2024-03-02T11:16:42;11.50;0.00
83146;DHT22;73037;51.110;4.706;2024-03-02T11:19:11;11.50;0.00
83146;DHT22;73037;51.110;4.706;2024-03-02T11:21:38;11.50;0.00
83146;DHT22;73037;51.110;4.706;2024-03-02T11:26:51;11.70;0.00
83146;DHT22;73037;51.110;4.706;2024-03-02T11:32:05;11.90;0.00
83146;DHT22;73037;51.110;4.706;2024-03-02T11:34:33;12.10;0.00
83146;DHT22;73037;51.110;4.706;2024-03-02T11:37:00;12.50;0.00
83146;DHT22;73037;51.110;4.706;2024-03-02T11:39:27;12.80;0.00
83146;DHT22;73037;51.110;4.706;2024-03-02T11:41:53;12.50;0.00
83146;DHT22;73037;51.110;4.706;2024-03-02T11:44:19;12.30;0.00
83146;DHT22;73037;51.110;4.706;2024-03-02T11:47:06;12.30;0.00
83146;DHT22;73037;51.110;4.706;2024-03-02T11:49:56;12.40;0.00
83146;DHT22;73037;51.110;4.706;2024-03-02T11:52:22;12.50;0.00
83146;DHT22;73037;51.110;4.706;2024-03-02T11:54:49;12.70;0.00
83146;DHT22;73037;51.110;4.706;2024-03-02T11:57:20;12.90;0.00
83146;DHT22;73037;51.110;4.706;2024-03-02T11:59:48;13.10;0.00
83146;DHT22;73037;51.110;4.706;2024-03-02T12:02:19;13.10;0.00
83146;DHT22;73037;51.110;4.706;2024-03-02T12:04:45;12.90;0.00
83146;DHT22;73037;51.110;4.706;2024-03-02T12:07:12;12.60;0.00
83146;DHT22;73037;51.110;4.706;2024-03-02T12:09:38;12.70;0.00
83146;DHT22;73037;51.110;4.706;2024-03-02T12:12:07;13.00;0.00
83146;DHT22;73037;51.110;4.706;2024-03-02T12:14:37;13.40;0.00
83146;DHT22;73037;51.110;4.706;2024-03-02T12:17:05;13.70;0.00
83146;DHT22;73037;51.110;4.706;2024-03-02T12:19:32;13.50;0.00
83146;DHT22;73037;51.110;4.706;2024-03-02T12:21:59;13.30;0.00
83146;DHT22;73037;51.110;4.706;2024-03-02T12:24:28;13.10;0.00
83146;DHT22;73037;51.110;4.706;2024-03-02T12:26:54;13.00;0.00
83146;DHT22;73037;51.110;4.706;2024-03-02T12:29:20;12.90;0.00
83146;DHT22;73037;51.110;4.706;2024-03-02T12:31:50;13.00;0.00
83146;DHT22;73037;51.110;4.706;2024-03-02T12:34:18;13.30;0.00
83146;DHT22;73037;51.110;4.706;2024-03-02T12:36:44;13.50;0.00
83146;DHT22;73037;51.110;4.706;2024-03-02T12:39:13;13.70;0.00
83146;DHT22;73037;51.110;4.706;2024-03-02T12:41:39;13.70;0.00
83146;DHT22;73037;51.110;4.706;2024-03-02T12:44:05;13.70;0.00
83146;DHT22;73037;51.110;4.706;2024-03-02T12:46:32;13.90;0.00
83146;DHT22;73037;51.110;4.706;2024-03-02T12:48:58;14.20;0.00
83146;DHT22;73037;51.110;4.706;2024-03-02T12:51:30;14.40;0.00
83146;DHT22;73037;51.110;4.706;2024-03-02T12:53:57;14.40;0.00
83146;DHT22;73037;51.110;4.706;2024-03-02T12:56:24;14.50;0.00
83146;DHT22;73037;51.110;4.706;2024-03-02T12:58:56;14.50;0.00
83146;DHT22;73037;51.110;4.706;2024-03-02T13:01:21;14.60;0.00
83146;DHT22;73037;51.110;4.706;2024-03-02T13:03:50;14.80;0.00
83146;DHT22;73037;51.110;4.706;2024-03-02T13:06:20;14.70;0.00
83146;DHT22;73037;51.110;4.706;2024-03-02T13:08:46;14.80;0.00
83146;DHT22;73037;51.110;4.706;2024-03-02T13:11:13;15.00;0.00
83146;DHT22;73037;51.110;4.706;2024-03-02T13:13:39;14.70;0.00
83146;DHT22;73037;51.110;4.706;2024-03-02T13:16:12;14.50;0.00
83146;DHT22;73037;51.110;4.706;2024-03-02T13:18:41;14.50;0.00
83146;DHT22;73037;51.110;4.706;2024-03-02T13:21:10;14.70;0.00
83146;DHT22;73037;51.110;4.706;2024-03-02T13:23:36;14.80;0.00
83146;DHT22;73037;51.110;4.706;2024-03-02T13:26:02;14.80;0.00
83146;DHT22;73037;51.110;4.706;2024-03-02T13:28:28;14.90;0.00
83146;DHT22;73037;51.110;4.706;2024-03-02T13:30:53;14.90;0.00
83146;DHT22;73037;51.110;4.706;2024-03-02T13:33:19;14.90;0.00
83146;DHT22;73037;51.110;4.706;2024-03-02T13:35:49;14.40;0.00
83146;DHT22;73037;51.110;4.706;2024-03-02T13:38:18;14.20;0.00
83146;DHT22;73037;51.110;4.706;2024-03-02T13:40:44;13.90;0.00
83146;DHT22;73037;51.110;4.706;2024-03-02T13:43:11;13.70;0.00
83146;DHT22;73037;51.110;4.706;2024-03-02T13:45:37;13.70;0.00
83146;DHT22;73037;51.110;4.706;2024-03-02T13:48:03;13.70;0.00
83146;DHT22;73037;51.110;4.706;2024-03-02T13:50:29;14.00;0.00
83146;DHT22;73037;51.110;4.706;2024-03-02T13:52:55;14.30;0.00
83146;DHT22;73037;51.110;4.706;2024-03-02T13:55:22;14.40;0.00
83146;DHT22;73037;51.110;4.706;2024-03-02T13:57:47;14.20;0.00
83146;DHT22;73037;51.110;4.706;2024-03-02T14:00:16;14.20;0.00
83146;DHT22;73037;51.110;4.706;2024-03-02T14:02:43;14.10;0.00
83146;DHT22;73037;51.110;4.706;2024-03-02T14:05:08;14.20;0.00
83146;DHT22;73037;51.110;4.706;2024-03-02T14:07:41;14.20;0.00
83146;DHT22;73037;51.110;4.706;2024-03-02T14:10:07;14.00;0.00
83146;DHT22;73037;51.110;4.706;2024-03-02T14:12:33;13.90;0.00
83146;DHT22;73037;51.110;4.706;2024-03-02T14:14:58;14.10;0.00
83146;DHT22;73037;51.110;4.706;2024-03-02T14:17:25;14.20;0.00
83146;DHT22;73037;51.110;4.706;2024-03-02T14:19:50;14.30;0.00
83146;DHT22;73037;51.110;4.706;2024-03-02T14:22:17;14.40;0.00
83146;DHT22;73037;51.110;4.706;2024-03-02T14:24:43;14.20;0.00
83146;DHT22;73037;51.110;4.706;2024-03-02T14:27:09;14.10;0.00
83146;DHT22;73037;51.110;4.706;2024-03-02T14:29:35;14.30;0.00
83146;DHT22;73037;51.110;4.706;2024-03-02T14:32:03;14.50;0.00
83146;DHT22;73037;51.110;4.706;2024-03-02T14:34:29;14.70;0.00
83146;DHT22;73037;51.110;4.706;2024-03-02T14:36:55;14.60;0.00
83146;DHT22;73037;51.110;4.706;2024-03-02T14:39:21;14.50;0.00
83146;DHT22;73037;51.110;4.706;2024-03-02T14:41:46;14.30;0.00
83146;DHT22;73037;51.110;4.706;2024-03-02T14:44:12;14.30;0.00
83146;DHT22;73037;51.110;4.706;2024-03-02T14:46:38;14.30;0.00
83146;DHT22;73037;51.110;4.706;2024-03-02T14:49:04;14.30;0.00
83146;DHT22;73037;51.110;4.706;2024-03-02T14:51:29;14.20;0.00
83146;DHT22;73037;51.110;4.706;2024-03-02T14:53:55;14.10;0.00
83146;DHT22;73037;51.110;4.706;2024-03-02T14:56:21;14.10;0.00
83146;DHT22;73037;51.110;4.706;2024-03-02T14:58:47;14.10;0.00
83146;DHT22;73037;51.110;4.706;2024-03-02T15:01:13;14.20;0.00
83146;DHT22;73037;51.110;4.706;2024-03-02T15:03:40;14.30;0.00
83146;DHT22;73037;51.110;4.706;2024-03-02T15:06:05;14.20;0.00
83146;DHT22;73037;51.110;4.706;2024-03-02T15:08:32;14.30;0.00
83146;DHT22;73037;51.110;4.706;2024-03-02T15:10:58;14.30;0.00
83146;DHT22;73037;51.110;4.706;2024-03-02T15:13:26;14.30;0.00
83146;DHT22;73037;51.110;4.706;2024-03-02T15:15:52;14.20;0.00
83146;DHT22;73037;51.110;4.706;2024-03-02T15:18:18;14.20;0.00
83146;DHT22;73037;51.110;4.706;2024-03-02T15:20:44;14.20;0.00
83146;DHT22;73037;51.110;4.706;2024-03-02T15:23:09;14.30;0.00
83146;DHT22;73037;51.110;4.706;2024-03-02T15:25:35;14.20;0.00
83146;DHT22;73037;51.110;4.706;2024-03-02T15:28:01;14.20;0.00
83146;DHT22;73037;51.110;4.706;2024-03-02T15:30:27;14.20;0.00
83146;DHT22;73037;51.110;4.706;2024-03-02T15:32:52;14.10;0.00
83146;DHT22;73037;51.110;4.706;2024-03-02T15:35:18;14.20;0.00
83146;DHT22;73037;51.110;4.706;2024-03-02T15:37:43;14.20;0.00
83146;DHT22;73037;51.110;4.706;2024-03-02T15:40:09;14.10;0.00
83146;DHT22;73037;51.110;4.706;2024-03-02T15:42:36;14.20;0.00
83146;DHT22;73037;51.110;4.706;2024-03-02T15:45:02;14.20;0.00
83146;DHT22;73037;51.110;4.706;2024-03-02T15:47:27;14.20;0.00
83146;DHT22;73037;51.110;4.706;2024-03-02T15:49:53;-50.00;0.00
83146;DHT22;73037;51.110;4.706;2024-03-02T15:52:19;-50.00;0.00
83146;DHT22;73037;51.110;4.706;2024-03-02T15:54:45;-50.00;0.00
83146;DHT22;73037;51.110;4.706;2024-03-02T15:57:11;14.10;0.00
83146;DHT22;73037;51.110;4.706;2024-03-02T15:59:37;14.10;0.00
83146;DHT22;73037;51.110;4.706;2024-03-02T16:02:02;14.10;0.00
83146;DHT22;73037;51.110;4.706;2024-03-02T16:04:29;14.20;0.00